Time;durP1;ratioP1;P1;durP2;ratioP2;P2;SDS_P1;SDS_P2;PMS_P1;PMS_P2;Temp;Humidity;BMP_temperature;BMP_pressure;BME280_temperature;BME280_humidity;BME280_pressure;Samples;Min_cycle;Max_cycle;Signal;HPM_P1;HPM_P2
2022/05/14 00:04:22;;;;;;;8.10;5.20;;;;;;;12.18;56.33;98928.89;218661;1274;439316;-70
2022/05/14 00:09:25;;;;;;;5.50;4.20;;;;;;;12.10;56.58;98921.66;220347;1275;22572;-70
2022/05/14 00:14:29;;;;;;;11.50;6.00;;;;;;;12.08;56.50;98925.35;220621;1276;24231;-70
2022/05/14 00:19:37;;;;;;;5.90;4.50;;;;;;;12.07;56.67;98932.52;219183;1276;22540;-70
2022/05/14 00:24:40;;;;;;;6.70;4.60;;;;;;;12.03;56.83;98934.55;219068;1276;22567;-70
2022/05/14 00:29:51;;;;;;;6.60;4.50;;;;;;;11.96;56.81;98929.84;219345;1276;25796;-71
2022/05/14 00:35:03;;;;;;;6.30;3.90;;;;;;;11.90;57.17;98924.30;219546;1275;25501;-70
2022/05/14 00:40:48;;;;;;;5.30;3.30;;;;;;;11.86;56.88;98925.36;220306;1275;24245;-68
2022/05/14 00:46:00;;;;;;;4.90;4.00;;;;;;;11.81;56.82;98930.74;219425;1274;22674;-70
2022/05/14 00:51:03;;;;;;;5.00;3.90;;;;;;;11.74;57.07;98936.00;220007;1274;22554;-70
2022/05/14 00:56:11;;;;;;;4.10;3.80;;;;;;;11.62;57.34;98937.98;219035;1275;26523;-69
2022/05/14 01:01:15;;;;;;;4.20;3.80;;;;;;;11.52;57.48;98935.08;218920;1276;22554;-70
2022/05/14 01:06:19;;;;;;;5.90;4.00;;;;;;;11.42;57.97;98936.94;220244;1275;23830;-70
2022/05/14 01:11:22;;;;;;;7.00;4.40;;;;;;;11.35;58.21;98942.20;219018;1274;23369;-69
2022/05/14 01:16:25;;;;;;;5.00;4.20;;;;;;;11.27;58.40;98943.05;220524;1274;24507;-70
2022/05/14 01:21:40;;;;;;;4.70;4.20;;;;;;;11.19;58.39;98944.59;219580;1275;22663;-69
2022/05/14 01:26:46;;;;;;;5.10;4.30;;;;;;;11.12;58.78;98948.27;218979;1274;22748;-71
2022/05/14 01:31:54;;;;;;;7.70;4.40;;;;;;;11.04;58.86;98953.09;219480;1274;22566;-69
2022/05/14 01:36:57;;;;;;;5.10;4.50;;;;;;;10.94;59.34;98954.88;219626;1275;24740;-69
2022/05/14 01:42:00;;;;;;;6.50;4.70;;;;;;;10.81;59.65;98949.39;219459;1275;25303;-70
2022/05/14 01:47:03;;;;;;;6.40;4.70;;;;;;;10.67;59.87;98945.47;220582;1275;22634;-69
2022/05/14 01:52:06;;;;;;;6.70;4.40;;;;;;;10.55;60.26;98947.52;218845;1276;22988;-70
2022/05/14 01:57:08;;;;;;;5.70;4.70;;;;;;;10.43;60.57;98946.09;219231;1276;25724;-70
2022/05/14 02:02:12;;;;;;;6.50;4.60;;;;;;;10.32;61.08;98939.30;218930;1276;24294;-70
2022/05/14 02:07:15;;;;;;;7.60;4.50;;;;;;;10.21;61.45;98943.36;219206;1274;22612;-67
2022/05/14 02:12:37;;;;;;;5.80;5.20;;;;;;;10.12;61.89;98946.98;219337;1275;25429;-69
2022/05/14 02:17:45;;;;;;;8.10;5.10;;;;;;;10.03;62.32;98943.41;219419;1276;23630;-69
2022/05/14 02:22:48;;;;;;;7.60;5.60;;;;;;;9.96;62.72;98946.31;219331;1274;22560;-70
2022/05/14 02:27:50;;;;;;;7.70;5.60;;;;;;;9.89;63.21;98950.31;220770;1276;25451;-70
2022/05/14 02:32:53;;;;;;;7.60;6.00;;;;;;;9.82;63.45;98946.73;220651;1275;22542;-70
2022/05/14 02:37:55;;;;;;;6.70;6.00;;;;;;;9.75;63.71;98942.77;219127;1276;22668;-70
2022/05/14 02:42:57;;;;;;;7.10;5.90;;;;;;;9.69;64.04;98941.95;220756;1276;22545;-69
2022/05/14 02:48:00;;;;;;;7.50;6.60;;;;;;;9.58;64.94;98942.14;220572;1274;23314;-69
2022/05/14 02:53:03;;;;;;;7.90;6.30;;;;;;;9.45;65.57;98944.67;219627;1276;22567;-69
2022/05/14 02:58:11;;;;;;;7.00;6.20;;;;;;;9.30;66.06;98942.14;219388;1274;22556;-69
2022/05/14 03:03:23;;;;;;;7.60;6.70;;;;;;;9.18;66.62;98939.56;219206;1274;25383;-70
2022/05/14 03:08:26;;;;;;;8.00;7.10;;;;;;;9.15;67.13;98938.77;219845;1276;22959;-69
2022/05/14 03:13:46;;;;;;;8.70;6.30;;;;;;;9.17;67.26;98941.99;220764;1276;22570;-69
2022/05/14 03:18:55;;;;;;;7.60;5.80;;;;;;;9.22;67.66;98946.84;219351;1276;24789;-70
2022/05/14 03:24:13;;;;;;;7.80;6.60;;;;;;;9.24;67.85;98949.39;220619;1276;25677;-70
2022/05/14 03:29:16;;;;;;;9.50;6.50;;;;;;;9.27;68.05;98951.56;219404;1274;26474;-70
2022/05/14 03:34:22;;;;;;;7.80;6.50;;;;;;;9.39;68.08;98950.05;221314;1276;22597;-70
2022/05/14 03:39:28;;;;;;;6.90;5.80;;;;;;;9.60;67.95;98949.77;220326;1274;25434;-69
2022/05/14 03:44:33;;;;;;;6.50;5.10;;;;;;;9.92;67.54;98954.53;219002;1276;25261;-69
2022/05/14 03:49:35;;;;;;;7.80;5.30;;;;;;;10.26;66.86;98958.49;219002;1276;22572;-69
2022/05/14 03:54:38;;;;;;;6.50;5.80;;;;;;;10.46;66.29;98960.73;219948;1274;25255;-70
2022/05/14 04:00:03;;;;;;;6.10;5.50;;;;;;;10.58;66.03;98969.24;219045;1276;22569;-69
2022/05/14 04:05:18;;;;;;;8.80;6.20;;;;;;;10.63;65.29;98970.89;219045;1274;25265;-70
2022/05/14 04:10:24;;;;;;;6.70;5.40;;;;;;;10.65;65.31;98972.98;219194;1274;22553;-70
2022/05/14 04:15:55;;;;;;;6.90;4.80;;;;;;;10.66;65.37;98974.58;219439;1274;25315;-70
2022/05/14 04:21:27;;;;;;;8.10;5.40;;;;;;;10.65;65.23;98982.79;219341;1274;22656;-69
2022/05/14 04:26:31;;;;;;;6.90;5.30;;;;;;;10.64;65.11;98979.69;219081;1275;22557;-69
2022/05/14 04:31:40;;;;;;;6.80;5.90;;;;;;;10.75;65.24;98982.57;219155;1274;24228;-69
2022/05/14 04:36:46;;;;;;;8.80;5.40;;;;;;;10.92;65.24;98982.71;220188;1277;24244;-71
2022/05/14 04:41:58;;;;;;;5.90;5.30;;;;;;;11.09;64.99;98986.70;221846;1275;24246;-69
2022/05/14 04:47:01;;;;;;;7.10;5.60;;;;;;;11.22;64.93;98991.05;219444;1275;22565;-70
2022/05/14 04:52:07;;;;;;;6.00;5.40;;;;;;;11.32;64.92;98991.63;219208;1274;22562;-69
2022/05/14 04:57:16;;;;;;;8.40;5.20;;;;;;;11.45;64.91;98991.84;220293;1274;22555;-69
2022/05/14 05:08:09;;;;;;;7.70;5.80;;;;;;;11.83;64.60;98986.60;219171;1277;22564;-69
2022/05/14 05:13:18;;;;;;;7.10;5.40;;;;;;;12.03;64.26;98983.37;218988;1276;24647;-70
2022/05/14 05:18:21;;;;;;;7.10;6.30;;;;;;;12.26;63.73;98982.95;219193;1274;24798;-70
2022/05/14 05:23:25;;;;;;;7.80;6.40;;;;;;;12.46;63.53;98982.61;219319;1277;24278;-70
2022/05/14 05:28:30;;;;;;;11.90;5.30;;;;;;;12.70;62.93;98983.95;219116;1275;22867;-70
2022/05/14 05:33:33;;;;;;;7.20;5.30;;;;;;;12.96;62.23;98976.70;219392;1274;26341;-69
2022/05/14 05:38:37;;;;;;;7.90;4.80;;;;;;;13.24;61.63;98978.66;219874;1274;24280;-69
2022/05/14 05:43:50;;;;;;;6.80;4.20;;;;;;;13.50;60.76;98975.59;219202;1274;23035;-69
2022/05/14 05:49:05;;;;;;;8.20;3.70;;;;;;;13.80;59.99;98978.23;219027;1277;22566;-69
2022/05/14 05:59:31;;;;;;;5.30;3.50;;;;;;;14.48;58.27;98977.41;218998;1274;22731;-71
2022/05/14 06:04:35;;;;;;;5.40;3.30;;;;;;;14.69;57.56;98974.36;219701;1274;22638;-69
2022/05/14 06:09:40;;;;;;;3.20;2.80;;;;;;;14.91;57.19;98975.94;219019;1277;22641;-70
2022/05/14 06:14:44;;;;;;;4.30;2.60;;;;;;;15.05;56.27;98977.28;219127;1277;24234;-69
2022/05/14 06:19:49;;;;;;;4.60;2.50;;;;;;;15.15;55.71;98979.09;219418;1276;22553;-69
2022/05/14 06:24:56;;;;;;;3.90;2.80;;;;;;;15.23;54.97;98980.22;218876;1277;24872;-69
2022/05/14 06:29:59;;;;;;;2.60;2.20;;;;;;;15.32;54.62;98980.83;219067;1278;22687;-69
2022/05/14 06:35:10;;;;;;;3.10;2.50;;;;;;;15.48;54.22;98981.07;219630;1278;22544;-70
2022/05/14 06:40:30;;;;;;;3.70;2.50;;;;;;;15.57;53.51;98985.26;221244;1274;22548;-73
2022/05/14 06:45:41;;;;;;;4.40;2.50;;;;;;;15.74;53.71;98992.02;221366;1275;25341;-73
2022/05/14 06:50:48;;;;;;;6.80;3.70;;;;;;;15.97;52.98;98995.47;221382;1277;22570;-72
2022/05/14 06:55:58;;;;;;;4.20;2.90;;;;;;;16.01;52.19;99003.04;221449;1274;22551;-73
2022/05/14 07:01:06;;;;;;;5.20;3.20;;;;;;;16.14;52.53;99005.86;224490;1274;22552;-73
2022/05/14 07:11:37;;;;;;;2.80;1.60;;;;;;;16.50;50.86;99010.10;221268;1275;22561;-72
2022/05/14 07:16:40;;;;;;;3.00;2.20;;;;;;;16.63;50.85;99008.78;220825;1275;22572;-72
2022/05/14 07:21:46;;;;;;;1.80;1.30;;;;;;;16.78;50.16;99016.19;222050;1277;22576;-72
2022/05/14 07:26:53;;;;;;;2.30;1.40;;;;;;;16.90;49.13;99012.85;221944;1277;22713;-73
2022/05/14 07:31:56;;;;;;;2.50;1.30;;;;;;;16.84;48.52;99013.81;221328;1274;22605;-73
2022/05/14 07:37:27;;;;;;;3.00;1.50;;;;;;;16.93;48.39;99017.76;221156;1275;22546;-73
2022/05/14 07:42:45;;;;;;;1.60;1.10;;;;;;;17.07;47.99;99013.37;221126;1275;22590;-73
2022/05/14 07:47:55;;;;;;;3.40;1.80;;;;;;;17.16;47.38;99013.16;221115;1274;25293;-73
2022/05/14 07:52:58;;;;;;;2.80;1.40;;;;;;;17.28;47.31;99016.41;221932;1274;22737;-74
2022/05/14 07:58:04;;;;;;;2.70;1.50;;;;;;;17.43;46.83;99010.27;221006;1274;22607;-74
2022/05/14 08:03:29;;;;;;;2.70;1.40;;;;;;;17.53;46.68;99011.36;221130;1274;22555;-74
2022/05/14 08:08:31;;;;;;;2.50;1.30;;;;;;;17.75;46.13;99011.10;220973;1274;22549;-74
2022/05/14 08:13:34;;;;;;;2.10;1.20;;;;;;;17.94;45.94;99003.81;221151;1274;22586;-74
2022/05/14 08:18:39;;;;;;;2.90;1.10;;;;;;;18.18;45.81;98993.52;221150;1274;22586;-74
2022/05/14 08:29:09;;;;;;;3.00;1.60;;;;;;;18.72;45.30;98992.81;220960;1274;22567;-72
2022/05/14 08:34:14;;;;;;;4.20;2.10;;;;;;;18.82;44.83;98985.85;220960;1275;25315;-73
2022/05/14 08:39:20;;;;;;;3.00;1.50;;;;;;;18.76;44.55;98984.95;220845;1276;22703;-74
2022/05/14 08:44:33;;;;;;;2.40;1.80;;;;;;;18.83;43.99;98978.28;220865;1274;25587;-69
2022/05/14 08:49:53;;;;;;;3.10;1.70;;;;;;;18.88;43.63;98982.10;220978;1275;22730;-69
2022/05/14 08:55:04;;;;;;;3.30;1.80;;;;;;;19.13;43.59;98980.09;219611;1275;22594;-69
2022/05/14 09:00:08;;;;;;;1.90;1.50;;;;;;;19.30;42.14;98977.98;219718;1274;24231;-68
2022/05/14 09:05:30;;;;;;;3.60;1.90;;;;;;;19.47;42.24;98979.86;219870;1274;22538;-69
2022/05/14 09:10:36;;;;;;;2.40;1.80;;;;;;;19.65;41.57;98975.91;220504;1274;22555;-68
2022/05/14 09:16:02;;;;;;;3.20;1.60;;;;;;;19.71;41.41;98975.55;218517;1274;25257;-69
2022/05/14 09:21:10;;;;;;;2.20;1.70;;;;;;;19.46;41.80;98974.10;223363;1274;22673;-69
2022/05/14 09:26:22;;;;;;;2.90;1.60;;;;;;;19.32;41.72;98968.80;219635;1274;22777;-68
2022/05/14 09:31:54;;;;;;;5.00;1.80;;;;;;;19.47;41.81;98963.42;222932;1274;22602;-70
2022/05/14 09:37:15;;;;;;;2.80;1.80;;;;;;;19.78;41.76;98958.88;219227;1274;22538;-69
2022/05/14 09:42:36;;;;;;;2.70;1.60;;;;;;;19.95;41.43;98951.69;219395;1274;22534;-69
2022/05/14 09:47:39;;;;;;;4.30;1.90;;;;;;;20.03;41.46;98955.55;220931;1274;22542;-68
2022/05/14 09:52:41;;;;;;;4.00;1.80;;;;;;;20.24;41.06;98955.46;218747;1274;22551;-68
2022/05/14 09:57:52;;;;;;;4.70;2.50;;;;;;;20.45;40.04;98949.97;218797;1274;22642;-69
2022/05/14 10:02:57;;;;;;;5.80;2.50;;;;;;;20.50;39.51;98940.83;218828;1275;22640;-70
2022/05/14 10:08:24;;;;;;;4.80;1.60;;;;;;;20.55;39.66;98939.25;218855;1277;22550;-69
2022/05/14 10:13:52;;;;;;;3.00;1.80;;;;;;;20.32;39.11;98940.68;227361;1273;23164;-69
2022/05/14 10:19:05;;;;;;;4.40;1.80;;;;;;;19.95;39.06;98927.23;218606;1274;24332;-69
2022/05/14 10:30:25;;;;;;;2.30;1.80;;;;;;;19.90;38.78;98922.05;218675;1274;22991;-69
2022/05/14 10:35:46;;;;;;;5.30;1.90;;;;;;;19.87;38.88;98921.71;219223;1273;25306;-69
2022/05/14 10:41:09;;;;;;;2.30;1.50;;;;;;;20.24;38.58;98914.69;218830;1275;23142;-71
2022/05/14 10:46:21;;;;;;;2.80;1.80;;;;;;;20.55;38.28;98908.13;220938;1274;23090;-71
2022/05/14 10:51:48;;;;;;;2.40;1.40;;;;;;;20.88;37.40;98905.13;220978;1275;22549;-71
2022/05/14 10:57:07;;;;;;;4.40;2.00;;;;;;;20.88;37.21;98903.40;221167;1274;22549;-72
2022/05/14 11:02:33;;;;;;;3.60;1.60;;;;;;;20.83;36.93;98903.40;221801;1275;22694;-71
2022/05/14 11:07:42;;;;;;;3.50;2.30;;;;;;;20.80;36.87;98896.23;221327;1274;25381;-71
2022/05/14 11:12:50;;;;;;;3.70;2.00;;;;;;;20.93;37.36;98892.02;220720;1276;23762;-72
2022/05/14 11:18:49;;;;;;;3.30;1.90;;;;;;;21.35;36.66;98890.80;221281;1274;22563;-71
2022/05/14 11:24:13;;;;;;;3.50;1.80;;;;;;;21.40;36.68;98886.48;219384;1282;25467;-72
2022/05/14 11:29:28;;;;;;;4.70;2.40;;;;;;;21.43;36.79;98888.72;220316;1274;22583;-72
2022/05/14 11:34:58;;;;;;;3.20;2.60;;;;;;;21.47;36.67;98885.15;220455;1274;22573;-72
2022/05/14 11:40:28;;;;;;;4.50;4.00;;;;;;;21.56;36.81;98892.10;218874;1274;24019;-72
2022/05/14 11:45:31;;;;;;;4.40;3.10;;;;;;;21.44;36.21;98887.75;220638;1274;22574;-71
2022/05/14 11:50:47;;;;;;;3.90;2.90;;;;;;;21.47;36.93;98888.73;220612;1274;22484;-72
2022/05/14 11:56:15;;;;;;;3.30;2.80;;;;;;;21.94;36.44;98883.48;221735;1274;22561;-71
2022/05/14 12:01:31;;;;;;;4.20;2.80;;;;;;;21.92;35.75;98885.88;220676;1274;22704;-71
2022/05/14 12:07:09;;;;;;;4.60;2.90;;;;;;;21.79;36.36;98881.20;220637;1276;241038;-71
2022/05/14 12:12:41;;;;;;;3.00;2.80;;;;;;;21.63;36.56;98879.55;220658;1274;22737;-71
2022/05/14 12:18:15;;;;;;;3.80;2.60;;;;;;;21.60;36.94;98867.35;220653;1274;22929;-71
2022/05/14 12:24:16;;;;;;;4.30;3.00;;;;;;;21.74;37.18;98864.35;221331;1274;23116;-71
2022/05/14 12:29:35;;;;;;;3.90;2.50;;;;;;;21.66;36.92;98856.03;219570;1274;22573;-70
2022/05/14 12:34:53;;;;;;;4.90;3.10;;;;;;;21.63;37.40;98859.38;220421;1276;22757;-72
2022/05/14 12:40:06;;;;;;;4.80;3.10;;;;;;;21.59;37.15;98855.66;220398;1276;22579;-71
2022/05/14 12:45:35;;;;;;;4.40;2.80;;;;;;;21.57;37.24;98851.02;221061;1274;24211;-71
2022/05/14 12:50:56;;;;;;;5.00;2.60;;;;;;;21.51;37.62;98850.66;220490;1274;25449;-71
2022/05/14 12:56:16;;;;;;;4.00;3.30;;;;;;;21.49;37.49;98844.70;221171;1274;22565;-71
2022/05/14 13:01:23;;;;;;;3.70;2.70;;;;;;;21.36;37.20;98843.73;221462;1275;23904;-71
2022/05/14 13:06:45;;;;;;;5.60;2.80;;;;;;;21.08;36.91;98832.20;221222;1274;22674;-70
2022/05/14 13:11:54;;;;;;;3.00;2.40;;;;;;;20.93;37.36;98830.17;223528;1275;22627;-70
2022/05/14 13:17:04;;;;;;;5.00;2.80;;;;;;;20.89;37.79;98824.02;221554;1274;22690;-71
2022/05/14 13:22:33;;;;;;;;;;;;;;;21.16;38.09;98817.19;220968;1274;24245;-71
2022/05/14 13:27:47;;;;;;;4.40;2.60;;;;;;;21.26;37.52;98813.89;220814;1274;25273;-72
2022/05/14 13:33:33;;;;;;;3.60;2.50;;;;;;;21.14;37.83;98808.21;220836;1274;22556;-72
2022/05/14 13:38:41;;;;;;;4.70;2.70;;;;;;;21.28;37.86;98795.73;221153;1274;22553;-70
2022/05/14 13:43:44;;;;;;;3.00;2.60;;;;;;;21.61;37.92;98797.11;220772;1275;26394;-70
2022/05/14 13:48:51;;;;;;;3.30;3.00;;;;;;;21.83;37.38;98795.26;220816;1274;25353;-70
2022/05/14 13:54:14;;;;;;;3.20;2.90;;;;;;;22.00;37.29;98799.05;220557;1274;24866;-71
2022/05/14 13:59:27;;;;;;;4.40;3.20;;;;;;;22.09;37.04;98794.91;221720;1274;22570;-70
2022/05/14 14:04:33;;;;;;;2.40;2.20;;;;;;;21.89;36.87;98795.67;220538;1275;22560;-71
2022/05/14 14:09:46;;;;;;;3.30;2.80;;;;;;;21.82;36.80;98790.03;221246;1276;22538;-71
2022/05/14 14:14:57;;;;;;;5.60;3.10;;;;;;;21.86;36.64;98800.38;220659;1274;22562;-70
2022/05/14 14:25:41;;;;;;;5.50;2.70;;;;;;;21.50;36.87;98789.38;221172;1274;22715;-71
2022/05/14 14:31:09;;;;;;;3.90;2.70;;;;;;;21.34;36.97;98787.80;220826;1274;22724;-70
2022/05/14 14:36:27;;;;;;;3.80;2.60;;;;;;;21.19;37.26;98795.08;220794;1274;22527;-71
2022/05/14 14:41:48;;;;;;;6.30;4.10;;;;;;;21.14;37.47;98793.58;220757;1275;22568;-71
2022/05/14 14:46:58;;;;;;;3.60;2.30;;;;;;;21.15;37.58;98794.45;220736;1274;25682;-71
2022/05/14 14:52:11;;;;;;;4.00;2.70;;;;;;;21.23;37.57;98793.83;220750;1274;25257;-70
2022/05/14 14:57:16;;;;;;;3.90;2.50;;;;;;;21.34;37.51;98788.05;220811;1276;23119;-71
2022/05/14 15:02:27;;;;;;;3.40;2.50;;;;;;;21.26;37.25;98795.35;220371;1276;22567;-70
2022/05/14 15:07:35;;;;;;;3.80;2.40;;;;;;;21.21;37.62;98789.96;221196;1276;23152;-71
2022/05/14 15:12:53;;;;;;;3.40;2.80;;;;;;;21.38;37.61;98785.77;219556;1274;22536;-70
2022/05/14 15:18:24;;;;;;;3.90;2.10;;;;;;;21.54;37.48;98790.47;220651;1275;25264;-71
2022/05/14 15:23:34;;;;;;;4.60;2.30;;;;;;;21.58;37.22;98789.37;220696;1275;25432;-70
2022/05/14 15:28:40;;;;;;;3.10;2.40;;;;;;;21.60;37.28;98795.56;220704;1274;23193;-71
2022/05/14 15:33:43;;;;;;;3.00;2.60;;;;;;;21.60;37.35;98795.41;220848;1274;23210;-72
2022/05/14 15:38:59;;;;;;;5.00;2.80;;;;;;;21.58;37.45;98799.50;220943;1275;25937;-70
2022/05/14 15:44:13;;;;;;;3.70;2.90;;;;;;;21.53;37.48;98797.99;220943;1274;22675;-71
2022/05/14 15:49:28;;;;;;;3.00;2.60;;;;;;;21.51;37.73;98795.48;220909;1274;22588;-71
2022/05/14 15:54:31;;;;;;;3.70;2.90;;;;;;;21.50;38.00;98791.92;221191;1275;22801;-70
2022/05/14 15:59:33;;;;;;;3.80;2.80;;;;;;;21.47;38.19;98784.39;220713;1275;26594;-71
2022/05/14 16:04:38;;;;;;;4.70;2.80;;;;;;;21.47;38.33;98786.18;220733;1274;25674;-71
2022/05/14 16:16:07;;;;;;;2.60;2.40;;;;;;;21.40;38.33;98778.73;220510;1276;25397;-71
2022/05/14 16:21:12;;;;;;;4.60;2.90;;;;;;;21.36;38.75;98781.30;222084;1275;22568;-72
2022/05/14 16:26:18;;;;;;;3.60;3.10;;;;;;;21.26;38.58;98787.34;221596;1274;22596;-70
2022/05/14 16:31:41;;;;;;;4.20;2.90;;;;;;;21.16;38.45;98785.67;220701;1274;22560;-71
2022/05/14 16:36:53;;;;;;;3.60;2.70;;;;;;;21.02;38.41;98788.98;220887;1274;22655;-71
2022/05/14 16:42:05;;;;;;;4.90;3.30;;;;;;;20.88;38.65;98787.91;220812;1275;25383;-72
2022/05/14 16:47:24;;;;;;;6.10;3.50;;;;;;;20.79;39.11;98794.96;220890;1275;24235;-71
2022/05/14 16:52:26;;;;;;;3.30;2.80;;;;;;;20.67;39.43;98791.80;220693;1277;22552;-71
2022/05/14 16:57:30;;;;;;;5.50;2.90;;;;;;;20.59;39.61;98798.44;220736;1275;25524;-71
2022/05/14 17:02:53;;;;;;;4.60;3.10;;;;;;;20.45;39.80;98801.62;220934;1274;24365;-71
2022/05/14 17:07:58;;;;;;;3.90;3.10;;;;;;;20.37;39.97;98799.80;219860;1276;24289;-71
2022/05/14 17:13:06;;;;;;;5.10;3.50;;;;;;;20.29;39.82;98800.10;221605;1275;22594;-70
2022/05/14 17:18:26;;;;;;;4.00;3.40;;;;;;;20.27;40.07;98803.77;219739;1276;22704;-70
2022/05/14 17:23:38;;;;;;;;;;;;;;;20.70;40.18;98800.41;221230;1274;22522;-70
2022/05/14 17:28:41;;;;;;;5.20;4.30;;;;;;;21.11;39.60;98798.65;219021;1274;22543;-71
2022/05/14 17:34:03;;;;;;;4.80;3.10;;;;;;;20.91;39.10;98798.77;219156;1275;24345;-71
2022/05/14 17:44:34;;;;;;;8.50;6.80;;;;;;;20.10;39.85;98809.89;219087;1275;25254;-71
2022/05/14 17:49:41;;;;;;;6.60;5.10;;;;;;;19.74;40.23;98812.40;220679;1274;25244;-71
2022/05/14 17:54:44;;;;;;;4.80;3.80;;;;;;;19.40;40.81;98815.39;220737;1275;22753;-70
2022/05/14 17:59:46;;;;;;;5.50;3.90;;;;;;;19.09;41.30;98816.53;220757;1275;22542;-71
2022/05/14 18:04:49;;;;;;;4.80;4.10;;;;;;;18.85;41.78;98819.77;220651;1275;22593;-71
2022/05/14 18:10:04;;;;;;;5.00;4.10;;;;;;;18.67;42.19;98818.91;220647;1274;23039;-71
2022/05/14 18:15:14;;;;;;;4.10;3.50;;;;;;;18.52;42.39;98822.86;220644;1276;22559;-71
2022/05/14 18:20:21;;;;;;;4.10;3.30;;;;;;;18.34;42.72;98825.83;220570;1274;22596;-70
2022/05/14 18:25:26;;;;;;;6.20;4.30;;;;;;;18.16;42.88;98829.41;220673;1274;22541;-71
2022/05/14 18:30:50;;;;;;;5.80;3.70;;;;;;;17.95;43.21;98830.48;220648;1276;25264;-71
2022/05/14 18:35:59;;;;;;;6.80;4.10;;;;;;;17.79;43.65;98834.66;220710;1275;25427;-71
2022/05/14 18:41:29;;;;;;;4.90;3.40;;;;;;;17.61;43.89;98837.53;221862;1274;22544;-71
2022/05/14 18:47:09;;;;;;;8.70;7.80;;;;;;;17.41;43.98;98841.48;220787;1275;26169;-71
2022/05/14 18:52:16;;;;;;;5.00;4.20;;;;;;;17.26;44.43;98847.06;220559;1275;22594;-71
2022/05/14 18:57:31;;;;;;;5.70;4.40;;;;;;;17.13;44.75;98850.05;220664;1275;22704;-71
2022/05/14 19:02:49;;;;;;;4.40;4.00;;;;;;;16.98;45.02;98857.83;220513;1274;24437;-71
2022/05/14 19:07:58;;;;;;;6.20;4.30;;;;;;;16.82;45.23;98862.99;220880;1274;25429;-70
2022/05/14 19:13:16;;;;;;;5.70;4.30;;;;;;;16.66;45.65;98873.11;220627;1274;24347;-71
2022/05/14 19:18:28;;;;;;;4.80;3.80;;;;;;;16.52;45.89;98874.66;220751;1274;25380;-71
2022/05/14 19:23:30;;;;;;;7.20;4.30;;;;;;;16.34;46.23;98882.11;220546;1274;24326;-71
2022/05/14 19:28:35;;;;;;;6.10;4.50;;;;;;;16.14;46.64;98885.33;220770;1275;22621;-71
2022/05/14 19:33:38;;;;;;;5.40;4.40;;;;;;;15.96;47.24;98885.57;220756;1275;22604;-71
2022/05/14 19:38:43;;;;;;;6.10;4.20;;;;;;;15.79;47.72;98893.02;220775;1274;22679;-71
2022/05/14 19:44:07;;;;;;;9.00;6.20;;;;;;;15.62;48.12;98893.12;220655;1274;22538;-72
2022/05/14 19:49:16;;;;;;;6.30;5.30;;;;;;;15.43;48.61;98896.39;220548;1274;22536;-71
2022/05/14 19:54:22;;;;;;;8.20;6.40;;;;;;;15.27;48.89;98898.45;220781;1274;22641;-71
2022/05/14 19:59:24;;;;;;;6.80;5.70;;;;;;;15.14;49.15;98902.55;220757;1275;22642;-71
2022/05/14 20:04:30;;;;;;;8.50;6.10;;;;;;;15.05;49.38;98913.88;220580;1274;22550;-72
2022/05/14 20:09:33;;;;;;;10.90;6.40;;;;;;;15.00;49.68;98917.89;218835;1275;22556;-70
2022/05/14 20:14:37;;;;;;;7.80;6.60;;;;;;;14.97;50.19;98921.38;220970;1276;24230;-71
2022/05/14 20:25:00;;;;;;;9.00;6.20;;;;;;;14.89;50.47;98926.20;220586;1275;24274;-73
2022/05/14 20:30:02;;;;;;;8.90;6.60;;;;;;;14.83;50.89;98931.71;220472;1274;22595;-71
2022/05/14 20:35:08;;;;;;;21.80;13.60;;;;;;;14.77;51.38;98935.70;220743;1274;22571;-71
2022/05/14 20:40:11;;;;;;;16.90;13.90;;;;;;;14.68;52.23;98935.69;220492;1276;22541;-71
2022/05/14 20:45:13;;;;;;;18.70;13.70;;;;;;;14.57;52.73;98937.93;220741;1275;23180;-71
2022/05/14 20:50:16;;;;;;;16.00;12.20;;;;;;;14.46;53.32;98939.18;220616;1274;26382;-72
2022/05/14 20:55:29;;;;;;;15.90;12.20;;;;;;;14.37;53.67;98937.70;220605;1276;25418;-69
2022/05/14 21:00:45;;;;;;;13.90;10.80;;;;;;;14.29;54.06;98938.70;220607;1275;22598;-71
2022/05/14 21:06:17;;;;;;;15.10;11.10;;;;;;;14.23;54.21;98942.48;220492;1277;22587;-71
2022/05/14 21:11:32;;;;;;;11.80;9.10;;;;;;;14.18;54.48;98939.02;220379;1274;22559;-71
2022/05/14 21:16:48;;;;;;;13.90;10.10;;;;;;;14.15;54.69;98941.23;220379;1277;22600;-71
2022/05/14 21:21:54;;;;;;;13.40;8.90;;;;;;;14.11;54.76;98940.57;220428;1274;22580;-71
2022/05/14 21:26:57;;;;;;;12.20;9.30;;;;;;;14.04;54.68;98946.64;221193;1276;22554;-71
2022/05/14 21:32:00;;;;;;;14.50;10.40;;;;;;;13.96;54.96;98946.75;218826;1274;22727;-71
2022/05/14 21:42:55;;;;;;;12.90;9.00;;;;;;;13.77;55.66;98949.73;220486;1274;25295;-71
2022/05/14 21:48:01;;;;;;;11.70;8.80;;;;;;;13.68;55.89;98948.54;221171;1276;23697;-71
2022/05/14 21:53:09;;;;;;;10.90;9.00;;;;;;;13.61;56.03;98947.88;220442;1275;24250;-70
2022/05/14 21:58:15;;;;;;;9.90;8.40;;;;;;;13.56;56.22;98945.02;220888;1275;22583;-71
2022/05/14 22:03:26;;;;;;;11.80;9.40;;;;;;;13.53;56.63;98944.84;220483;1275;22560;-71
2022/05/14 22:08:47;;;;;;;13.80;9.90;;;;;;;13.48;56.98;98948.82;220960;1274;22545;-70
2022/05/14 22:13:53;;;;;;;13.20;9.90;;;;;;;13.40;57.28;98947.31;220566;1276;22554;-70
2022/05/14 22:18:56;;;;;;;12.80;10.50;;;;;;;13.33;57.15;98942.77;220794;1274;25379;-70
2022/05/14 22:23:59;;;;;;;12.40;10.40;;;;;;;13.26;57.54;98945.23;218905;1275;24146;-71
2022/05/14 22:29:04;;;;;;;16.60;11.70;;;;;;;13.16;58.28;98941.01;221118;1275;25317;-70
2022/05/14 22:34:11;;;;;;;17.50;14.70;;;;;;;13.03;59.12;98939.52;220579;1277;25458;-71
2022/05/14 22:39:14;;;;;;;17.20;14.30;;;;;;;12.86;59.41;98940.31;220487;1274;24408;-71
2022/05/14 22:44:16;;;;;;;19.60;15.80;;;;;;;12.74;60.07;98939.08;220544;1274;25296;-72
2022/05/14 22:49:22;;;;;;;16.60;13.80;;;;;;;12.60;60.40;98939.95;220320;1274;23303;-71
2022/05/14 22:54:41;;;;;;;15.80;13.20;;;;;;;12.50;60.49;98936.52;220419;1275;24248;-70
2022/05/14 22:59:55;;;;;;;15.20;12.10;;;;;;;12.39;60.71;98937.11;220510;1274;23158;-70
2022/05/14 23:05:15;;;;;;;12.20;10.10;;;;;;;12.25;60.90;98933.59;220387;1277;22549;-69
2022/05/14 23:10:25;;;;;;;15.20;11.40;;;;;;;12.10;61.46;98932.34;220558;1274;24112;-70
2022/05/14 23:15:30;;;;;;;16.90;12.50;;;;;;;11.94;62.09;98927.75;218820;1275;25331;-70
2022/05/14 23:20:44;;;;;;;14.20;11.60;;;;;;;11.78;62.58;98929.55;218737;1276;23941;-70
2022/05/14 23:25:57;;;;;;;15.50;11.80;;;;;;;11.65;62.78;98930.55;220533;1278;22583;-71
2022/05/14 23:31:06;;;;;;;14.00;11.30;;;;;;;11.55;62.93;98930.48;220381;1277;23254;-71
2022/05/14 23:36:24;;;;;;;16.50;12.00;;;;;;;11.47;63.30;98930.76;220564;1277;22760;-71
2022/05/14 23:41:33;;;;;;;15.30;12.40;;;;;;;11.39;63.95;98934.95;221295;1275;25318;-71
2022/05/14 23:46:36;;;;;;;14.30;11.90;;;;;;;11.32;64.15;98939.82;220517;1277;22580;-71
2022/05/14 23:51:41;;;;;;;17.10;13.00;;;;;;;11.24;64.74;98944.20;218851;1274;22984;-70
2022/05/14 23:56:57;;;;;;;14.50;12.60;;;;;;;11.17;64.99;98941.46;220522;1274;24023;-71
